logo
Search for airport 
image banner adimage banner adimage banner ad
image banner ad

ED0582 - Koenigsfeld

Located in , Germany

ICAO - , IATA -

Data provided by Airmate  

General information

Coordinates: N51°4'11" E12°45'59"
Elevation is 1440 feet MSL.
 
View others Airports in Saxony

Operational data

Special qualification required
Current time UTC:
Current local time:
Weather at : EDAC - Leipzig-Altenburg Airport ( 21 km )
METAR: EDAC 242020Z AUTO 00000KT 9999 // NCD 09/08 Q1028
TAF: TAF EDAC 241700Z 2418/2503 12006KT CAVOK
View NOTAMs / SUP AIP / TFR affecting this airport [VIEW]
Communications frequencies: [VIEW]

Runways:

Airport contact information

Address: Germany

Satellite view of ED0582